sensor_id;sensor_type;location;lat;lon;timestamp;P1;durP1;ratioP1;P2;durP2;ratioP2
62102;SDS011;48077;48.104;11.702;2022-10-17T00:02:07;2.65;;;1.88;;
62102;SDS011;48077;48.104;11.702;2022-10-17T00:04:31;3.05;;;1.67;;
62102;SDS011;48077;48.104;11.702;2022-10-17T00:06:54;2.88;;;1.80;;
62102;SDS011;48077;48.104;11.702;2022-10-17T00:09:17;5.28;;;2.83;;
62102;SDS011;48077;48.104;11.702;2022-10-17T00:11:41;5.47;;;2.10;;
62102;SDS011;48077;48.104;11.702;2022-10-17T00:14:04;2.78;;;1.80;;
62102;SDS011;48077;48.104;11.702;2022-10-17T00:16:29;4.72;;;1.80;;
62102;SDS011;48077;48.104;11.702;2022-10-17T00:18:55;3.13;;;1.70;;
62102;SDS011;48077;48.104;11.702;2022-10-17T00:21:19;3.22;;;1.95;;
62102;SDS011;48077;48.104;11.702;2022-10-17T00:23:43;3.47;;;1.80;;
62102;SDS011;48077;48.104;11.702;2022-10-17T00:26:07;3.25;;;1.90;;
62102;SDS011;48077;48.104;11.702;2022-10-17T00:28:30;3.28;;;1.90;;
62102;SDS011;48077;48.104;11.702;2022-10-17T00:30:55;2.47;;;2.17;;
62102;SDS011;48077;48.104;11.702;2022-10-17T00:33:19;4.10;;;2.05;;
62102;SDS011;48077;48.104;11.702;2022-10-17T00:35:43;12.60;;;1.98;;
62102;SDS011;48077;48.104;11.702;2022-10-17T00:38:06;3.08;;;1.77;;
62102;SDS011;48077;48.104;11.702;2022-10-17T00:40:29;2.33;;;1.52;;
62102;SDS011;48077;48.104;11.702;2022-10-17T00:42:53;2.97;;;1.80;;
62102;SDS011;48077;48.104;11.702;2022-10-17T00:47:50;3.05;;;1.60;;
62102;SDS011;48077;48.104;11.702;2022-10-17T00:50:17;4.57;;;2.20;;
62102;SDS011;48077;48.104;11.702;2022-10-17T00:52:41;2.95;;;1.77;;
62102;SDS011;48077;48.104;11.702;2022-10-17T00:55:16;3.58;;;1.80;;
62102;SDS011;48077;48.104;11.702;2022-10-17T00:57:43;2.70;;;1.80;;
62102;SDS011;48077;48.104;11.702;2022-10-17T01:00:08;5.60;;;2.03;;
62102;SDS011;48077;48.104;11.702;2022-10-17T01:02:33;2.88;;;1.65;;
62102;SDS011;48077;48.104;11.702;2022-10-17T01:04:56;3.00;;;1.67;;
62102;SDS011;48077;48.104;11.702;2022-10-17T01:07:21;5.63;;;1.90;;
62102;SDS011;48077;48.104;11.702;2022-10-17T01:09:45;3.58;;;1.80;;
62102;SDS011;48077;48.104;11.702;2022-10-17T01:12:17;2.47;;;1.80;;
62102;SDS011;48077;48.104;11.702;2022-10-17T01:26:04;2.83;;;2.00;;
62102;SDS011;48077;48.104;11.702;2022-10-17T01:31:14;3.08;;;1.65;;
62102;SDS011;48077;48.104;11.702;2022-10-17T01:33:46;4.47;;;1.75;;
62102;SDS011;48077;48.104;11.702;2022-10-17T01:36:44;5.72;;;1.80;;
62102;SDS011;48077;48.104;11.702;2022-10-17T01:39:38;3.58;;;1.58;;
62102;SDS011;48077;48.104;11.702;2022-10-17T01:44:50;4.32;;;1.92;;
62102;SDS011;48077;48.104;11.702;2022-10-17T01:47:23;2.58;;;1.58;;
62102;SDS011;48077;48.104;11.702;2022-10-17T01:49:50;2.53;;;2.00;;
62102;SDS011;48077;48.104;11.702;2022-10-17T01:52:22;2.10;;;1.73;;
62102;SDS011;48077;48.104;11.702;2022-10-17T01:54:50;2.70;;;1.70;;
62102;SDS011;48077;48.104;11.702;2022-10-17T01:57:26;2.38;;;1.60;;
62102;SDS011;48077;48.104;11.702;2022-10-17T01:59:54;2.38;;;1.60;;
62102;SDS011;48077;48.104;11.702;2022-10-17T02:02:19;3.67;;;2.03;;
62102;SDS011;48077;48.104;11.702;2022-10-17T02:04:43;3.97;;;1.98;;
62102;SDS011;48077;48.104;11.702;2022-10-17T02:07:10;3.28;;;1.73;;
62102;SDS011;48077;48.104;11.702;2022-10-17T02:09:34;3.40;;;1.77;;
62102;SDS011;48077;48.104;11.702;2022-10-17T02:17:23;3.88;;;2.00;;
62102;SDS011;48077;48.104;11.702;2022-10-17T02:20:02;3.40;;;1.90;;
62102;SDS011;48077;48.104;11.702;2022-10-17T02:22:39;2.35;;;1.50;;
62102;SDS011;48077;48.104;11.702;2022-10-17T02:27:49;3.28;;;2.05;;
62102;SDS011;48077;48.104;11.702;2022-10-17T02:30:35;4.03;;;2.25;;
62102;SDS011;48077;48.104;11.702;2022-10-17T02:33:20;2.83;;;1.70;;
62102;SDS011;48077;48.104;11.702;2022-10-17T02:35:51;2.75;;;1.85;;
62102;SDS011;48077;48.104;11.702;2022-10-17T02:38:16;3.58;;;2.15;;
62102;SDS011;48077;48.104;11.702;2022-10-17T02:40:41;2.58;;;1.60;;
62102;SDS011;48077;48.104;11.702;2022-10-17T02:43:06;5.55;;;2.00;;
62102;SDS011;48077;48.104;11.702;2022-10-17T02:45:30;3.47;;;1.73;;
62102;SDS011;48077;48.104;11.702;2022-10-17T02:47:59;5.50;;;1.67;;
62102;SDS011;48077;48.104;11.702;2022-10-17T02:50:29;2.35;;;1.63;;
62102;SDS011;48077;48.104;11.702;2022-10-17T02:53:03;2.08;;;1.45;;
62102;SDS011;48077;48.104;11.702;2022-10-17T02:55:34;2.97;;;1.80;;
62102;SDS011;48077;48.104;11.702;2022-10-17T02:58:03;2.17;;;1.48;;
62102;SDS011;48077;48.104;11.702;2022-10-17T03:00:32;3.42;;;1.80;;
62102;SDS011;48077;48.104;11.702;2022-10-17T03:02:56;2.42;;;1.50;;
62102;SDS011;48077;48.104;11.702;2022-10-17T03:05:21;2.78;;;1.88;;
62102;SDS011;48077;48.104;11.702;2022-10-17T03:07:49;2.05;;;1.30;;
62102;SDS011;48077;48.104;11.702;2022-10-17T03:10:13;3.85;;;1.95;;
62102;SDS011;48077;48.104;11.702;2022-10-17T03:12:37;3.28;;;1.80;;
62102;SDS011;48077;48.104;11.702;2022-10-17T03:15:00;3.47;;;1.83;;
62102;SDS011;48077;48.104;11.702;2022-10-17T03:17:24;2.83;;;1.58;;
62102;SDS011;48077;48.104;11.702;2022-10-17T03:19:47;2.40;;;1.73;;
62102;SDS011;48077;48.104;11.702;2022-10-17T03:22:10;6.10;;;2.50;;
62102;SDS011;48077;48.104;11.702;2022-10-17T03:24:34;3.97;;;2.40;;
62102;SDS011;48077;48.104;11.702;2022-10-17T03:27:00;3.35;;;2.20;;
62102;SDS011;48077;48.104;11.702;2022-10-17T03:29:23;3.67;;;2.25;;
62102;SDS011;48077;48.104;11.702;2022-10-17T03:31:47;3.55;;;2.10;;
62102;SDS011;48077;48.104;11.702;2022-10-17T03:34:10;3.97;;;2.17;;
62102;SDS011;48077;48.104;11.702;2022-10-17T03:36:34;3.25;;;1.63;;
62102;SDS011;48077;48.104;11.702;2022-10-17T03:38:57;3.17;;;1.75;;
62102;SDS011;48077;48.104;11.702;2022-10-17T03:41:20;2.80;;;1.98;;
62102;SDS011;48077;48.104;11.702;2022-10-17T03:43:44;2.35;;;1.40;;
62102;SDS011;48077;48.104;11.702;2022-10-17T03:46:07;2.55;;;1.67;;
62102;SDS011;48077;48.104;11.702;2022-10-17T03:48:31;2.28;;;1.58;;
62102;SDS011;48077;48.104;11.702;2022-10-17T03:50:58;4.28;;;1.88;;
62102;SDS011;48077;48.104;11.702;2022-10-17T03:53:23;4.05;;;2.58;;
62102;SDS011;48077;48.104;11.702;2022-10-17T03:55:46;3.85;;;2.42;;
62102;SDS011;48077;48.104;11.702;2022-10-17T03:58:10;4.10;;;1.70;;
62102;SDS011;48077;48.104;11.702;2022-10-17T04:00:36;7.07;;;2.10;;
62102;SDS011;48077;48.104;11.702;2022-10-17T04:02:59;4.32;;;1.80;;
62102;SDS011;48077;48.104;11.702;2022-10-17T04:05:23;2.58;;;1.52;;
62102;SDS011;48077;48.104;11.702;2022-10-17T04:07:46;2.63;;;1.80;;
62102;SDS011;48077;48.104;11.702;2022-10-17T04:10:10;2.75;;;1.80;;
62102;SDS011;48077;48.104;11.702;2022-10-17T04:12:33;3.45;;;1.70;;
62102;SDS011;48077;48.104;11.702;2022-10-17T04:14:57;2.53;;;1.60;;
62102;SDS011;48077;48.104;11.702;2022-10-17T04:17:20;3.55;;;1.63;;
62102;SDS011;48077;48.104;11.702;2022-10-17T04:19:43;3.42;;;1.90;;
62102;SDS011;48077;48.104;11.702;2022-10-17T04:22:07;2.63;;;1.70;;
62102;SDS011;48077;48.104;11.702;2022-10-17T04:24:30;3.25;;;1.65;;
62102;SDS011;48077;48.104;11.702;2022-10-17T04:26:54;2.72;;;1.60;;
62102;SDS011;48077;48.104;11.702;2022-10-17T04:29:17;2.83;;;1.90;;
62102;SDS011;48077;48.104;11.702;2022-10-17T04:31:41;3.65;;;1.77;;
62102;SDS011;48077;48.104;11.702;2022-10-17T04:34:04;2.20;;;1.70;;
62102;SDS011;48077;48.104;11.702;2022-10-17T04:36:28;3.10;;;1.85;;
62102;SDS011;48077;48.104;11.702;2022-10-17T04:38:51;3.03;;;1.58;;
62102;SDS011;48077;48.104;11.702;2022-10-17T04:41:15;2.85;;;1.80;;
62102;SDS011;48077;48.104;11.702;2022-10-17T04:43:40;4.97;;;2.03;;
62102;SDS011;48077;48.104;11.702;2022-10-17T04:46:05;2.85;;;1.80;;
62102;SDS011;48077;48.104;11.702;2022-10-17T04:48:30;3.78;;;1.90;;
62102;SDS011;48077;48.104;11.702;2022-10-17T04:50:55;3.35;;;1.58;;
62102;SDS011;48077;48.104;11.702;2022-10-17T04:53:23;3.17;;;1.75;;
62102;SDS011;48077;48.104;11.702;2022-10-17T04:55:46;3.10;;;1.58;;
62102;SDS011;48077;48.104;11.702;2022-10-17T04:58:10;2.90;;;1.70;;
62102;SDS011;48077;48.104;11.702;2022-10-17T05:00:33;4.45;;;2.05;;
62102;SDS011;48077;48.104;11.702;2022-10-17T05:02:57;5.13;;;1.52;;
62102;SDS011;48077;48.104;11.702;2022-10-17T05:05:21;5.35;;;1.90;;
62102;SDS011;48077;48.104;11.702;2022-10-17T05:07:44;5.38;;;1.95;;
62102;SDS011;48077;48.104;11.702;2022-10-17T05:10:07;2.63;;;1.52;;
62102;SDS011;48077;48.104;11.702;2022-10-17T05:12:31;2.95;;;1.70;;
62102;SDS011;48077;48.104;11.702;2022-10-17T05:14:54;3.17;;;1.70;;
62102;SDS011;48077;48.104;11.702;2022-10-17T05:17:18;3.40;;;1.45;;
62102;SDS011;48077;48.104;11.702;2022-10-17T05:19:41;2.30;;;1.52;;
62102;SDS011;48077;48.104;11.702;2022-10-17T05:22:04;12.48;;;3.63;;
62102;SDS011;48077;48.104;11.702;2022-10-17T05:24:29;3.45;;;2.30;;
62102;SDS011;48077;48.104;11.702;2022-10-17T05:26:52;2.22;;;1.58;;
62102;SDS011;48077;48.104;11.702;2022-10-17T05:29:15;2.97;;;1.92;;
62102;SDS011;48077;48.104;11.702;2022-10-17T05:31:39;2.78;;;1.60;;
62102;SDS011;48077;48.104;11.702;2022-10-17T05:34:02;4.00;;;2.30;;
62102;SDS011;48077;48.104;11.702;2022-10-17T05:36:26;3.65;;;2.10;;
62102;SDS011;48077;48.104;11.702;2022-10-17T05:38:50;3.25;;;2.00;;
62102;SDS011;48077;48.104;11.702;2022-10-17T05:41:14;3.25;;;1.70;;
62102;SDS011;48077;48.104;11.702;2022-10-17T05:43:37;4.97;;;2.20;;
62102;SDS011;48077;48.104;11.702;2022-10-17T05:46:04;3.63;;;1.80;;
62102;SDS011;48077;48.104;11.702;2022-10-17T05:48:28;2.97;;;1.83;;
62102;SDS011;48077;48.104;11.702;2022-10-17T05:50:58;2.58;;;1.58;;
62102;SDS011;48077;48.104;11.702;2022-10-17T05:53:23;5.90;;;1.65;;
62102;SDS011;48077;48.104;11.702;2022-10-17T05:55:53;2.35;;;1.35;;
62102;SDS011;48077;48.104;11.702;2022-10-17T05:58:18;3.28;;;1.50;;
62102;SDS011;48077;48.104;11.702;2022-10-17T06:00:41;2.85;;;1.70;;
62102;SDS011;48077;48.104;11.702;2022-10-17T06:03:04;2.78;;;1.48;;
62102;SDS011;48077;48.104;11.702;2022-10-17T06:05:28;3.13;;;1.60;;
62102;SDS011;48077;48.104;11.702;2022-10-17T06:07:51;2.58;;;1.58;;
62102;SDS011;48077;48.104;11.702;2022-10-17T06:10:15;3.13;;;1.52;;
62102;SDS011;48077;48.104;11.702;2022-10-17T06:12:39;4.70;;;1.88;;
62102;SDS011;48077;48.104;11.702;2022-10-17T06:15:02;2.80;;;1.75;;
62102;SDS011;48077;48.104;11.702;2022-10-17T06:17:26;3.30;;;1.70;;
62102;SDS011;48077;48.104;11.702;2022-10-17T06:19:51;2.80;;;1.73;;
62102;SDS011;48077;48.104;11.702;2022-10-17T06:22:14;3.55;;;1.80;;
62102;SDS011;48077;48.104;11.702;2022-10-17T06:24:37;5.88;;;2.33;;
62102;SDS011;48077;48.104;11.702;2022-10-17T06:27:01;2.50;;;1.40;;
62102;SDS011;48077;48.104;11.702;2022-10-17T06:29:24;3.58;;;1.70;;
62102;SDS011;48077;48.104;11.702;2022-10-17T06:31:48;4.18;;;1.80;;
62102;SDS011;48077;48.104;11.702;2022-10-17T06:34:11;4.18;;;2.53;;
62102;SDS011;48077;48.104;11.702;2022-10-17T06:36:34;4.60;;;2.55;;
62102;SDS011;48077;48.104;11.702;2022-10-17T06:38:58;4.13;;;2.05;;
62102;SDS011;48077;48.104;11.702;2022-10-17T06:41:21;3.38;;;1.73;;
62102;SDS011;48077;48.104;11.702;2022-10-17T06:43:45;3.88;;;2.00;;
62102;SDS011;48077;48.104;11.702;2022-10-17T06:46:09;3.63;;;1.83;;
62102;SDS011;48077;48.104;11.702;2022-10-17T06:48:32;3.17;;;1.65;;
62102;SDS011;48077;48.104;11.702;2022-10-17T06:50:59;3.88;;;2.10;;
62102;SDS011;48077;48.104;11.702;2022-10-17T06:53:25;3.25;;;1.77;;
62102;SDS011;48077;48.104;11.702;2022-10-17T06:55:50;3.00;;;1.88;;
62102;SDS011;48077;48.104;11.702;2022-10-17T06:58:15;4.28;;;2.00;;
62102;SDS011;48077;48.104;11.702;2022-10-17T07:00:39;4.68;;;2.13;;
62102;SDS011;48077;48.104;11.702;2022-10-17T07:03:02;5.20;;;2.20;;
62102;SDS011;48077;48.104;11.702;2022-10-17T07:05:26;4.57;;;2.22;;
62102;SDS011;48077;48.104;11.702;2022-10-17T07:07:49;4.13;;;1.80;;
62102;SDS011;48077;48.104;11.702;2022-10-17T07:10:12;12.90;;;2.72;;
62102;SDS011;48077;48.104;11.702;2022-10-17T07:12:36;4.78;;;2.10;;
62102;SDS011;48077;48.104;11.702;2022-10-17T07:14:59;4.72;;;2.38;;
62102;SDS011;48077;48.104;11.702;2022-10-17T07:17:23;3.53;;;1.85;;
62102;SDS011;48077;48.104;11.702;2022-10-17T07:19:47;4.07;;;2.00;;
62102;SDS011;48077;48.104;11.702;2022-10-17T07:22:10;4.43;;;2.13;;
62102;SDS011;48077;48.104;11.702;2022-10-17T07:24:34;3.90;;;2.30;;
62102;SDS011;48077;48.104;11.702;2022-10-17T07:26:58;3.53;;;1.73;;
62102;SDS011;48077;48.104;11.702;2022-10-17T07:29:21;3.58;;;2.30;;
62102;SDS011;48077;48.104;11.702;2022-10-17T07:31:44;4.07;;;1.90;;
62102;SDS011;48077;48.104;11.702;2022-10-17T07:34:10;4.40;;;2.60;;
62102;SDS011;48077;48.104;11.702;2022-10-17T07:36:34;4.18;;;2.38;;
62102;SDS011;48077;48.104;11.702;2022-10-17T07:38:57;4.80;;;2.03;;
62102;SDS011;48077;48.104;11.702;2022-10-17T07:41:20;3.88;;;2.38;;
62102;SDS011;48077;48.104;11.702;2022-10-17T07:43:44;4.82;;;2.25;;
62102;SDS011;48077;48.104;11.702;2022-10-17T07:46:08;3.65;;;2.63;;
62102;SDS011;48077;48.104;11.702;2022-10-17T07:48:33;2.97;;;1.92;;
62102;SDS011;48077;48.104;11.702;2022-10-17T07:50:58;3.20;;;2.17;;
62102;SDS011;48077;48.104;11.702;2022-10-17T07:53:24;4.93;;;2.40;;
62102;SDS011;48077;48.104;11.702;2022-10-17T07:55:48;3.13;;;1.88;;
62102;SDS011;48077;48.104;11.702;2022-10-17T07:58:11;3.45;;;2.30;;
62102;SDS011;48077;48.104;11.702;2022-10-17T08:00:35;3.90;;;2.22;;
62102;SDS011;48077;48.104;11.702;2022-10-17T08:02:59;5.63;;;2.40;;
62102;SDS011;48077;48.104;11.702;2022-10-17T08:05:22;3.53;;;2.30;;
62102;SDS011;48077;48.104;11.702;2022-10-17T08:07:46;5.60;;;2.60;;
62102;SDS011;48077;48.104;11.702;2022-10-17T08:10:12;6.07;;;2.45;;
62102;SDS011;48077;48.104;11.702;2022-10-17T08:12:37;4.30;;;2.70;;
62102;SDS011;48077;48.104;11.702;2022-10-17T08:15:00;3.47;;;2.22;;
62102;SDS011;48077;48.104;11.702;2022-10-17T08:17:23;7.15;;;3.33;;
62102;SDS011;48077;48.104;11.702;2022-10-17T08:19:47;8.07;;;3.33;;
62102;SDS011;48077;48.104;11.702;2022-10-17T08:22:10;5.32;;;3.25;;
62102;SDS011;48077;48.104;11.702;2022-10-17T08:24:33;9.52;;;3.65;;
62102;SDS011;48077;48.104;11.702;2022-10-17T08:26:57;4.63;;;2.65;;
62102;SDS011;48077;48.104;11.702;2022-10-17T08:29:22;4.45;;;2.65;;
62102;SDS011;48077;48.104;11.702;2022-10-17T08:31:47;5.60;;;3.17;;
62102;SDS011;48077;48.104;11.702;2022-10-17T08:34:10;4.70;;;2.55;;
62102;SDS011;48077;48.104;11.702;2022-10-17T08:36:33;4.90;;;2.92;;
62102;SDS011;48077;48.104;11.702;2022-10-17T08:38:57;5.18;;;3.03;;
62102;SDS011;48077;48.104;11.702;2022-10-17T08:44:05;4.63;;;2.35;;
62102;SDS011;48077;48.104;11.702;2022-10-17T08:46:40;5.05;;;2.92;;
62102;SDS011;48077;48.104;11.702;2022-10-17T08:49:09;4.53;;;2.80;;
62102;SDS011;48077;48.104;11.702;2022-10-17T08:51:41;7.65;;;3.80;;
62102;SDS011;48077;48.104;11.702;2022-10-17T08:54:13;5.32;;;3.03;;
62102;SDS011;48077;48.104;11.702;2022-10-17T08:56:44;3.88;;;2.85;;
62102;SDS011;48077;48.104;11.702;2022-10-17T08:59:19;6.28;;;3.50;;
62102;SDS011;48077;48.104;11.702;2022-10-17T09:01:49;5.28;;;3.15;;
62102;SDS011;48077;48.104;11.702;2022-10-17T09:12:24;5.55;;;3.20;;
62102;SDS011;48077;48.104;11.702;2022-10-17T09:15:15;4.05;;;3.00;;
62102;SDS011;48077;48.104;11.702;2022-10-17T09:18:13;7.40;;;3.50;;
62102;SDS011;48077;48.104;11.702;2022-10-17T09:20:44;6.05;;;2.83;;
62102;SDS011;48077;48.104;11.702;2022-10-17T09:23:19;3.42;;;2.83;;
62102;SDS011;48077;48.104;11.702;2022-10-17T09:25:49;4.75;;;3.15;;
62102;SDS011;48077;48.104;11.702;2022-10-17T09:30:56;4.43;;;3.03;;
62102;SDS011;48077;48.104;11.702;2022-10-17T09:33:24;6.90;;;3.13;;
62102;SDS011;48077;48.104;11.702;2022-10-17T09:35:50;3.55;;;2.60;;
62102;SDS011;48077;48.104;11.702;2022-10-17T09:38:15;4.07;;;2.90;;
62102;SDS011;48077;48.104;11.702;2022-10-17T09:40:41;4.97;;;3.25;;
62102;SDS011;48077;48.104;11.702;2022-10-17T09:43:05;7.22;;;2.95;;
62102;SDS011;48077;48.104;11.702;2022-10-17T09:45:33;4.10;;;3.00;;
62102;SDS011;48077;48.104;11.702;2022-10-17T09:48:07;6.30;;;3.42;;
62102;SDS011;48077;48.104;11.702;2022-10-17T09:50:41;6.63;;;3.05;;
62102;SDS011;48077;48.104;11.702;2022-10-17T09:53:13;4.57;;;2.40;;
62102;SDS011;48077;48.104;11.702;2022-10-17T09:55:48;4.28;;;2.88;;
62102;SDS011;48077;48.104;11.702;2022-10-17T09:58:15;3.38;;;2.80;;
62102;SDS011;48077;48.104;11.702;2022-10-17T10:00:40;3.58;;;2.60;;
62102;SDS011;48077;48.104;11.702;2022-10-17T10:05:55;5.30;;;3.50;;
62102;SDS011;48077;48.104;11.702;2022-10-17T10:08:21;4.53;;;2.90;;
62102;SDS011;48077;48.104;11.702;2022-10-17T10:10:48;6.63;;;3.28;;
62102;SDS011;48077;48.104;11.702;2022-10-17T10:13:20;4.72;;;3.20;;
62102;SDS011;48077;48.104;11.702;2022-10-17T10:15:50;4.30;;;2.80;;
62102;SDS011;48077;48.104;11.702;2022-10-17T10:20:46;4.35;;;3.45;;
62102;SDS011;48077;48.104;11.702;2022-10-17T10:23:14;4.50;;;3.17;;
62102;SDS011;48077;48.104;11.702;2022-10-17T10:25:56;8.35;;;3.42;;
62102;SDS011;48077;48.104;11.702;2022-10-17T10:28:22;4.57;;;3.00;;
62102;SDS011;48077;48.104;11.702;2022-10-17T10:30:49;4.47;;;2.90;;
62102;SDS011;48077;48.104;11.702;2022-10-17T10:33:14;5.00;;;3.15;;
62102;SDS011;48077;48.104;11.702;2022-10-17T10:35:37;6.28;;;3.20;;
62102;SDS011;48077;48.104;11.702;2022-10-17T10:38:02;6.78;;;3.47;;
62102;SDS011;48077;48.104;11.702;2022-10-17T10:40:32;4.03;;;2.85;;
62102;SDS011;48077;48.104;11.702;2022-10-17T10:42:59;3.97;;;2.80;;
62102;SDS011;48077;48.104;11.702;2022-10-17T10:45:24;3.63;;;2.90;;
62102;SDS011;48077;48.104;11.702;2022-10-17T10:48:04;4.75;;;3.05;;
62102;SDS011;48077;48.104;11.702;2022-10-17T10:50:41;4.45;;;2.67;;
62102;SDS011;48077;48.104;11.702;2022-10-17T10:55:50;16.75;;;3.42;;
62102;SDS011;48077;48.104;11.702;2022-10-17T10:58:33;5.00;;;2.60;;
62102;SDS011;48077;48.104;11.702;2022-10-17T11:01:08;4.15;;;3.13;;
62102;SDS011;48077;48.104;11.702;2022-10-17T11:03:40;3.67;;;2.90;;
62102;SDS011;48077;48.104;11.702;2022-10-17T11:06:15;3.55;;;2.67;;
62102;SDS011;48077;48.104;11.702;2022-10-17T11:08:47;5.20;;;2.70;;
62102;SDS011;48077;48.104;11.702;2022-10-17T11:11:29;6.78;;;3.13;;
62102;SDS011;48077;48.104;11.702;2022-10-17T11:14:01;4.80;;;2.75;;
62102;SDS011;48077;48.104;11.702;2022-10-17T11:16:36;4.03;;;3.15;;
62102;SDS011;48077;48.104;11.702;2022-10-17T11:19:09;3.95;;;2.83;;
62102;SDS011;48077;48.104;11.702;2022-10-17T11:24:47;3.17;;;2.38;;
62102;SDS011;48077;48.104;11.702;2022-10-17T11:27:18;3.05;;;2.40;;
62102;SDS011;48077;48.104;11.702;2022-10-17T11:29:42;2.75;;;2.47;;
62102;SDS011;48077;48.104;11.702;2022-10-17T11:32:12;2.65;;;2.10;;
62102;SDS011;48077;48.104;11.702;2022-10-17T11:34:44;3.17;;;2.33;;
62102;SDS011;48077;48.104;11.702;2022-10-17T11:37:24;2.92;;;2.33;;
62102;SDS011;48077;48.104;11.702;2022-10-17T11:40:02;4.05;;;2.13;;
62102;SDS011;48077;48.104;11.702;2022-10-17T11:42:38;3.78;;;2.20;;
62102;SDS011;48077;48.104;11.702;2022-10-17T11:45:14;4.13;;;2.60;;
62102;SDS011;48077;48.104;11.702;2022-10-17T11:53:00;3.20;;;2.10;;
62102;SDS011;48077;48.104;11.702;2022-10-17T11:55:33;4.50;;;1.90;;
62102;SDS011;48077;48.104;11.702;2022-10-17T12:06:28;5.22;;;2.20;;
62102;SDS011;48077;48.104;11.702;2022-10-17T12:08:58;3.63;;;2.28;;
62102;SDS011;48077;48.104;11.702;2022-10-17T12:11:46;3.47;;;2.15;;
62102;SDS011;48077;48.104;11.702;2022-10-17T12:16:59;2.85;;;2.28;;
62102;SDS011;48077;48.104;11.702;2022-10-17T12:19:24;3.17;;;2.20;;
62102;SDS011;48077;48.104;11.702;2022-10-17T12:21:57;3.97;;;2.05;;
62102;SDS011;48077;48.104;11.702;2022-10-17T12:24:43;2.70;;;1.95;;
62102;SDS011;48077;48.104;11.702;2022-10-17T12:32:34;3.65;;;2.10;;
62102;SDS011;48077;48.104;11.702;2022-10-17T12:34:58;3.25;;;1.90;;
62102;SDS011;48077;48.104;11.702;2022-10-17T12:42:57;2.70;;;1.95;;
62102;SDS011;48077;48.104;11.702;2022-10-17T12:53:24;2.88;;;1.77;;
62102;SDS011;48077;48.104;11.702;2022-10-17T12:55:58;2.25;;;1.73;;
62102;SDS011;48077;48.104;11.702;2022-10-17T12:58:22;2.95;;;1.80;;
62102;SDS011;48077;48.104;11.702;2022-10-17T13:00:49;2.58;;;1.55;;
62102;SDS011;48077;48.104;11.702;2022-10-17T13:03:16;2.03;;;1.58;;
62102;SDS011;48077;48.104;11.702;2022-10-17T13:06:05;3.10;;;2.03;;
62102;SDS011;48077;48.104;11.702;2022-10-17T13:08:32;2.30;;;1.50;;
62102;SDS011;48077;48.104;11.702;2022-10-17T13:10:59;2.63;;;1.77;;
62102;SDS011;48077;48.104;11.702;2022-10-17T13:18:53;2.60;;;1.80;;
62102;SDS011;48077;48.104;11.702;2022-10-17T13:21:17;2.88;;;2.00;;
62102;SDS011;48077;48.104;11.702;2022-10-17T13:23:41;2.65;;;1.80;;
62102;SDS011;48077;48.104;11.702;2022-10-17T13:26:07;2.10;;;1.55;;
62102;SDS011;48077;48.104;11.702;2022-10-17T13:28:36;2.83;;;1.92;;
62102;SDS011;48077;48.104;11.702;2022-10-17T13:30:59;4.28;;;1.95;;
62102;SDS011;48077;48.104;11.702;2022-10-17T13:33:33;3.35;;;2.08;;
62102;SDS011;48077;48.104;11.702;2022-10-17T13:36:01;2.13;;;1.70;;
62102;SDS011;48077;48.104;11.702;2022-10-17T13:38:27;2.35;;;1.77;;
62102;SDS011;48077;48.104;11.702;2022-10-17T13:40:54;2.20;;;1.50;;
62102;SDS011;48077;48.104;11.702;2022-10-17T13:43:18;3.00;;;2.00;;
62102;SDS011;48077;48.104;11.702;2022-10-17T13:45:48;2.70;;;2.10;;
62102;SDS011;48077;48.104;11.702;2022-10-17T13:48:18;2.53;;;1.70;;
62102;SDS011;48077;48.104;11.702;2022-10-17T13:50:47;2.83;;;1.77;;
62102;SDS011;48077;48.104;11.702;2022-10-17T13:58:25;2.60;;;1.80;;
62102;SDS011;48077;48.104;11.702;2022-10-17T14:01:01;2.92;;;1.80;;
62102;SDS011;48077;48.104;11.702;2022-10-17T14:03:25;1.88;;;1.48;;
62102;SDS011;48077;48.104;11.702;2022-10-17T14:08:36;3.35;;;1.60;;
62102;SDS011;48077;48.104;11.702;2022-10-17T14:11:01;2.80;;;1.55;;
62102;SDS011;48077;48.104;11.702;2022-10-17T14:13:29;2.40;;;1.95;;
62102;SDS011;48077;48.104;11.702;2022-10-17T14:15:57;2.95;;;2.05;;
62102;SDS011;48077;48.104;11.702;2022-10-17T14:18:24;1.90;;;1.50;;
62102;SDS011;48077;48.104;11.702;2022-10-17T14:20:50;2.45;;;1.80;;
62102;SDS011;48077;48.104;11.702;2022-10-17T14:26:33;2.10;;;1.50;;
62102;SDS011;48077;48.104;11.702;2022-10-17T14:31:43;1.60;;;1.35;;
62102;SDS011;48077;48.104;11.702;2022-10-17T14:34:15;2.03;;;1.70;;
62102;SDS011;48077;48.104;11.702;2022-10-17T14:36:45;2.58;;;1.67;;
62102;SDS011;48077;48.104;11.702;2022-10-17T14:39:17;2.22;;;1.70;;
62102;SDS011;48077;48.104;11.702;2022-10-17T14:41:43;3.38;;;1.90;;
62102;SDS011;48077;48.104;11.702;2022-10-17T14:44:13;2.08;;;1.40;;
62102;SDS011;48077;48.104;11.702;2022-10-17T14:46:43;2.03;;;1.70;;
62102;SDS011;48077;48.104;11.702;2022-10-17T14:49:15;2.17;;;1.58;;
62102;SDS011;48077;48.104;11.702;2022-10-17T14:52:08;2.22;;;1.65;;
62102;SDS011;48077;48.104;11.702;2022-10-17T14:54:33;1.83;;;1.50;;
62102;SDS011;48077;48.104;11.702;2022-10-17T14:56:58;1.90;;;1.50;;
62102;SDS011;48077;48.104;11.702;2022-10-17T14:59:21;1.70;;;1.35;;
62102;SDS011;48077;48.104;11.702;2022-10-17T15:01:47;2.70;;;1.50;;
62102;SDS011;48077;48.104;11.702;2022-10-17T15:04:11;2.13;;;1.55;;
62102;SDS011;48077;48.104;11.702;2022-10-17T15:06:34;2.10;;;1.60;;
62102;SDS011;48077;48.104;11.702;2022-10-17T15:08:58;2.15;;;1.73;;
62102;SDS011;48077;48.104;11.702;2022-10-17T15:11:22;2.17;;;1.50;;
62102;SDS011;48077;48.104;11.702;2022-10-17T15:13:46;3.55;;;1.60;;
62102;SDS011;48077;48.104;11.702;2022-10-17T15:16:14;2.35;;;1.80;;
62102;SDS011;48077;48.104;11.702;2022-10-17T15:18:45;1.80;;;1.48;;
62102;SDS011;48077;48.104;11.702;2022-10-17T15:21:12;1.85;;;1.42;;
62102;SDS011;48077;48.104;11.702;2022-10-17T15:23:36;2.20;;;1.60;;
62102;SDS011;48077;48.104;11.702;2022-10-17T15:26:00;2.33;;;1.70;;
62102;SDS011;48077;48.104;11.702;2022-10-17T15:28:23;2.22;;;1.67;;
62102;SDS011;48077;48.104;11.702;2022-10-17T15:30:47;2.22;;;1.67;;
62102;SDS011;48077;48.104;11.702;2022-10-17T15:33:10;2.45;;;1.92;;
62102;SDS011;48077;48.104;11.702;2022-10-17T15:35:33;2.40;;;1.70;;
62102;SDS011;48077;48.104;11.702;2022-10-17T15:37:58;2.33;;;1.67;;
62102;SDS011;48077;48.104;11.702;2022-10-17T15:40:22;2.55;;;1.83;;
62102;SDS011;48077;48.104;11.702;2022-10-17T15:42:50;3.17;;;1.92;;
62102;SDS011;48077;48.104;11.702;2022-10-17T15:45:14;3.35;;;2.22;;
62102;SDS011;48077;48.104;11.702;2022-10-17T15:47:39;5.90;;;3.17;;
62102;SDS011;48077;48.104;11.702;2022-10-17T15:50:03;3.85;;;2.75;;
62102;SDS011;48077;48.104;11.702;2022-10-17T15:52:29;5.35;;;3.42;;
62102;SDS011;48077;48.104;11.702;2022-10-17T15:54:52;6.28;;;2.97;;
62102;SDS011;48077;48.104;11.702;2022-10-17T15:57:17;3.83;;;3.00;;
62102;SDS011;48077;48.104;11.702;2022-10-17T15:59:42;3.70;;;2.80;;
62102;SDS011;48077;48.104;11.702;2022-10-17T16:02:11;6.32;;;2.60;;
62102;SDS011;48077;48.104;11.702;2022-10-17T16:04:36;4.45;;;2.67;;
62102;SDS011;48077;48.104;11.702;2022-10-17T16:06:59;3.13;;;2.20;;
62102;SDS011;48077;48.104;11.702;2022-10-17T16:09:23;3.13;;;2.40;;
62102;SDS011;48077;48.104;11.702;2022-10-17T16:11:46;2.80;;;2.22;;
62102;SDS011;48077;48.104;11.702;2022-10-17T16:14:10;4.00;;;2.00;;
62102;SDS011;48077;48.104;11.702;2022-10-17T16:16:36;4.13;;;2.38;;
62102;SDS011;48077;48.104;11.702;2022-10-17T16:18:59;3.58;;;2.22;;